Terminal Aerodrome Forecast
Issued by NWS

Home | Current Version | Previous Version | Text Only | Print | Product List | Glossary On
Versions: 1 2 3 4 5 6 7 8 9 10 11 12 13 14
703
FTUS45 KABQ 281739
TAFROW
TAF
KROW 281739Z 2818/0118 22030G40KT P6SM BKN100
     FM281900 26037G50KT 6SM BLDU BKN120
     FM010100 28026G35KT P6SM SCT150
     FM010300 30016G24KT P6SM SKC
     FM010700 33008KT P6SM SKC=

USA.gov is the U.S. government's official web portal to all federal, state and local government web resources and services.